createdAt,value
2017-12-13T00:00:14.924Z,99.99
2017-12-13T00:01:14.939Z,99.99
2017-12-13T00:02:14.954Z,99.99
2017-12-13T00:03:14.968Z,99.99
2017-12-13T00:04:14.983Z,99.99
2017-12-13T00:05:15.024Z,99.99
2017-12-13T00:06:15.015Z,99.99
2017-12-13T00:07:15.029Z,99.99
2017-12-13T00:08:15.044Z,99.99
2017-12-13T00:09:15.059Z,99.99
2017-12-13T00:10:15.073Z,99.99
2017-12-13T00:11:15.088Z,99.99
2017-12-13T00:12:15.102Z,99.99
2017-12-13T00:13:15.121Z,99.99
2017-12-13T00:14:15.133Z,99.99
2017-12-13T00:15:15.148Z,99.99
2017-12-13T00:16:15.165Z,99.99
2017-12-13T00:17:15.178Z,99.99
2017-12-13T00:18:15.192Z,99.99
2017-12-13T00:19:15.207Z,99.99
2017-12-13T00:20:15.223Z,99.99
2017-12-13T00:21:15.239Z,99.99
2017-12-13T00:22:15.252Z,99.99
2017-12-13T00:23:15.267Z,99.99
2017-12-13T00:24:15.283Z,99.99
2017-12-13T00:25:15.298Z,99.99
2017-12-13T00:26:15.312Z,99.99
2017-12-13T00:27:15.328Z,99.99
2017-12-13T00:28:15.343Z,99.99
2017-12-13T00:29:15.358Z,99.99
2017-12-13T00:30:15.372Z,99.99
2017-12-13T00:31:15.388Z,99.99
2017-12-13T00:32:15.404Z,99.99
2017-12-13T00:33:15.419Z,99.99
2017-12-13T00:34:15.431Z,99.99
2017-12-13T00:35:15.452Z,99.99
2017-12-13T00:36:15.463Z,99.99
2017-12-13T00:37:15.478Z,99.99
2017-12-13T00:38:15.491Z,99.99
2017-12-13T00:39:15.508Z,99.99
2017-12-13T00:40:15.522Z,99.99
2017-12-13T00:41:15.538Z,99.99
2017-12-13T00:42:15.553Z,99.99
2017-12-13T00:43:15.569Z,99.99
2017-12-13T00:44:15.584Z,99.99
2017-12-13T00:45:15.602Z,99.99
2017-12-13T00:46:15.613Z,99.99
2017-12-13T00:47:15.627Z,99.99
2017-12-13T00:48:15.644Z,99.99
2017-12-13T00:49:15.659Z,99.99
2017-12-13T00:50:15.673Z,99.99
2017-12-13T00:51:15.688Z,99.99
2017-12-13T00:52:15.702Z,99.99
2017-12-13T00:53:15.719Z,99.99
2017-12-13T00:54:15.732Z,99.99
2017-12-13T00:55:15.748Z,99.99
2017-12-13T00:56:15.763Z,99.99
2017-12-13T00:57:15.778Z,99.99
2017-12-13T00:58:15.794Z,99.99
2017-12-13T00:59:15.807Z,99.99
2017-12-13T01:00:15.822Z,99.99
2017-12-13T01:01:15.838Z,99.99
2017-12-13T01:02:15.851Z,99.99
2017-12-13T01:03:15.866Z,99.99
2017-12-13T01:04:15.883Z,99.99
2017-12-13T01:05:15.898Z,99.99
2017-12-13T01:06:15.911Z,99.99
2017-12-13T01:07:15.927Z,99.99
2017-12-13T01:08:15.941Z,99.99
2017-12-13T01:09:15.956Z,99.99
2017-12-13T01:10:15.970Z,99.99
2017-12-13T01:11:15.986Z,99.99
2017-12-13T01:12:16.001Z,99.99
2017-12-13T01:13:16.015Z,99.99
2017-12-13T01:14:16.031Z,99.99
2017-12-13T01:15:16.045Z,99.99
2017-12-13T01:16:16.062Z,99.99
2017-12-13T01:17:16.076Z,99.99
2017-12-13T01:18:16.090Z,99.99
2017-12-13T01:19:16.105Z,99.99
2017-12-13T01:20:16.119Z,99.99
2017-12-13T01:21:16.135Z,99.99
2017-12-13T01:22:16.149Z,99.99
2017-12-13T01:23:16.164Z,99.99
2017-12-13T01:24:16.179Z,99.99
2017-12-13T01:25:16.196Z,99.99
2017-12-13T01:26:16.208Z,99.99
2017-12-13T01:27:16.223Z,99.99
2017-12-13T01:28:16.237Z,99.99
2017-12-13T01:29:16.254Z,99.99
2017-12-13T01:30:16.267Z,99.99
2017-12-13T01:31:16.282Z,99.99
2017-12-13T01:32:16.296Z,99.99
2017-12-13T01:33:16.320Z,99.99
2017-12-13T01:34:16.327Z,99.99
2017-12-13T01:35:16.345Z,99.99
2017-12-13T01:36:16.357Z,99.99
2017-12-13T01:37:16.371Z,99.99
2017-12-13T01:38:16.385Z,99.99
2017-12-13T01:39:16.399Z,99.99
2017-12-13T01:40:16.416Z,99.99
2017-12-13T01:41:16.430Z,99.99
2017-12-13T01:42:16.444Z,99.99
2017-12-13T01:43:16.459Z,99.99
2017-12-13T01:44:16.475Z,99.99
2017-12-13T01:45:16.489Z,99.99
2017-12-13T01:46:16.503Z,99.99
2017-12-13T01:47:16.519Z,99.99
2017-12-13T01:48:16.534Z,99.99
2017-12-13T01:49:16.548Z,99.95
2017-12-13T01:50:16.563Z,99.99
2017-12-13T01:51:16.576Z,99.95
2017-12-13T01:52:16.593Z,99.38
2017-12-13T01:53:16.608Z,99.57
2017-12-13T01:54:16.621Z,99.85
2017-12-13T01:55:16.637Z,99.29
2017-12-13T01:56:16.652Z,99.85
2017-12-13T01:57:16.667Z,99.66
2017-12-13T01:58:16.680Z,99.29
2017-12-13T01:59:16.696Z,99.10
2017-12-13T02:00:16.710Z,98.91
2017-12-13T02:01:16.725Z,99.10
2017-12-13T02:02:16.741Z,99.29
2017-12-13T02:03:16.754Z,99.10
2017-12-13T02:04:16.770Z,98.91
2017-12-13T02:05:16.784Z,99.10
2017-12-13T02:06:16.799Z,99.48
2017-12-13T02:07:16.813Z,99.48
2017-12-13T02:08:16.829Z,99.57
2017-12-13T02:09:16.842Z,99.48
2017-12-13T02:10:16.857Z,99.29
2017-12-13T02:11:16.872Z,99.66
2017-12-13T02:12:16.888Z,99.29
2017-12-13T02:13:16.902Z,99.38
2017-12-13T02:14:17.218Z,99.57
2017-12-13T02:15:16.931Z,99.48
2017-12-13T02:16:16.948Z,99.48
2017-12-13T02:17:16.961Z,99.48
2017-12-13T02:18:16.974Z,99.29
2017-12-13T02:19:17.013Z,99.85
2017-12-13T02:20:17.005Z,99.01
2017-12-13T02:21:17.019Z,99.10
2017-12-13T02:22:17.033Z,99.38
2017-12-13T02:23:17.049Z,99.48
2017-12-13T02:24:17.065Z,99.01
2017-12-13T02:25:17.079Z,99.10
2017-12-13T02:26:17.095Z,99.48
2017-12-13T02:27:17.107Z,99.66
2017-12-13T02:28:17.123Z,99.48
2017-12-13T02:29:17.137Z,99.29
2017-12-13T02:30:17.154Z,99.66
2017-12-13T02:31:17.167Z,99.57
2017-12-13T02:32:17.182Z,99.66
2017-12-13T02:33:17.196Z,99.38
2017-12-13T02:34:17.211Z,99.76
2017-12-13T02:35:17.225Z,99.48
2017-12-13T02:36:17.242Z,99.95
2017-12-13T02:37:17.256Z,99.66
2017-12-13T02:38:17.270Z,99.48
2017-12-13T02:39:17.285Z,99.48
2017-12-13T02:40:17.308Z,99.29
2017-12-13T02:41:17.314Z,99.29
2017-12-13T02:42:17.327Z,99.29
2017-12-13T02:43:17.343Z,99.29
2017-12-13T02:44:17.359Z,99.66
2017-12-13T02:45:17.374Z,99.57
2017-12-13T02:46:17.388Z,99.29
2017-12-13T02:47:17.401Z,99.57
2017-12-13T02:48:17.416Z,99.38
2017-12-13T02:49:17.432Z,99.57
2017-12-13T02:50:17.447Z,99.19
2017-12-13T02:51:17.460Z,99.19
2017-12-13T02:52:17.475Z,99.57
2017-12-13T02:53:17.491Z,99.57
2017-12-13T02:54:17.505Z,99.10
2017-12-13T02:55:17.519Z,99.48
2017-12-13T02:56:17.535Z,99.19
2017-12-13T02:57:17.549Z,98.91
2017-12-13T02:58:17.564Z,99.10
2017-12-13T02:59:17.578Z,99.01
2017-12-13T03:00:17.592Z,98.72
2017-12-13T03:01:17.607Z,98.91
2017-12-13T03:02:17.622Z,98.91
2017-12-13T03:03:17.636Z,98.91
2017-12-13T03:04:17.654Z,99.29
2017-12-13T03:05:17.666Z,98.82
2017-12-13T03:06:17.681Z,98.91
2017-12-13T03:07:17.695Z,99.29
2017-12-13T03:08:17.711Z,99.10
2017-12-13T03:09:17.724Z,98.72
2017-12-13T03:10:17.738Z,98.53
2017-12-13T03:11:17.754Z,98.34
2017-12-13T03:12:17.767Z,98.25
2017-12-13T03:13:17.783Z,98.25
2017-12-13T03:14:17.797Z,98.25
2017-12-13T03:15:17.811Z,98.25
2017-12-13T03:16:17.827Z,98.25
2017-12-13T03:17:17.870Z,98.34
2017-12-13T03:18:17.855Z,98.53
2017-12-13T03:19:17.871Z,98.44
2017-12-13T03:20:17.885Z,98.25
2017-12-13T03:21:17.900Z,97.96
2017-12-13T03:22:17.915Z,98.15
2017-12-13T03:23:17.929Z,98.06
2017-12-13T03:24:17.944Z,97.30
2017-12-13T03:25:17.959Z,97.39
2017-12-13T03:26:17.975Z,97.49
2017-12-13T03:27:18.127Z,97.20
2017-12-13T03:28:18.002Z,97.02
2017-12-13T03:29:18.017Z,96.92
2017-12-13T03:30:18.033Z,96.16
2017-12-13T03:31:18.047Z,96.26
2017-12-13T03:32:18.083Z,96.26
2017-12-13T03:33:18.096Z,96.64
2017-12-13T03:34:18.106Z,96.54
2017-12-13T03:35:18.104Z,96.54
2017-12-13T03:36:18.120Z,96.07
2017-12-13T03:37:18.135Z,96.35
2017-12-13T03:38:18.148Z,97.02
2017-12-13T03:39:18.164Z,97.39
2017-12-13T03:40:18.178Z,96.83
2017-12-13T03:41:18.193Z,97.11
2017-12-13T03:42:18.208Z,96.73
2017-12-13T03:43:18.222Z,96.73
2017-12-13T03:44:18.241Z,96.73
2017-12-13T03:45:18.257Z,96.64
2017-12-13T03:46:18.266Z,96.07
2017-12-13T03:47:18.280Z,95.50
2017-12-13T03:48:18.296Z,95.69
2017-12-13T03:49:18.349Z,95.40
2017-12-13T03:50:18.325Z,95.40
2017-12-13T03:51:18.339Z,95.21
2017-12-13T03:52:18.354Z,95.31
2017-12-13T03:53:18.370Z,95.31
2017-12-13T03:54:18.383Z,95.03
2017-12-13T03:55:18.398Z,95.31
2017-12-13T03:56:18.415Z,95.40
2017-12-13T03:57:18.429Z,95.03
2017-12-13T03:58:18.442Z,94.65
2017-12-13T03:59:18.457Z,94.18
2017-12-13T04:00:18.472Z,94.46
2017-12-13T04:01:18.487Z,94.56
2017-12-13T04:02:18.502Z,94.56
2017-12-13T04:03:18.515Z,94.27
2017-12-13T04:04:18.531Z,94.08
2017-12-13T04:05:18.547Z,93.80
2017-12-13T04:06:18.564Z,93.99
2017-12-13T04:07:18.579Z,94.56
2017-12-13T04:08:18.591Z,94.37
2017-12-13T04:09:18.605Z,94.37
2017-12-13T04:10:18.620Z,94.65
2017-12-13T04:11:18.635Z,94.18
2017-12-13T04:12:18.650Z,93.89
2017-12-13T04:13:18.664Z,94.46
2017-12-13T04:14:18.679Z,94.27
2017-12-13T04:15:18.694Z,94.27
2017-12-13T04:16:18.710Z,94.18
2017-12-13T04:17:18.724Z,94.56
2017-12-13T04:18:18.739Z,93.61
2017-12-13T04:19:18.752Z,94.08
2017-12-13T04:20:18.768Z,93.80
2017-12-13T04:21:18.783Z,94.18
2017-12-13T04:22:18.796Z,94.08
2017-12-13T04:23:18.812Z,94.27
2017-12-13T04:24:18.827Z,93.80
2017-12-13T04:25:18.842Z,93.89
2017-12-13T04:26:18.857Z,93.99
2017-12-13T04:27:18.870Z,94.46
2017-12-13T04:28:18.886Z,94.37
2017-12-13T04:29:18.901Z,94.37
2017-12-13T04:30:18.915Z,94.56
2017-12-13T04:31:18.930Z,93.89
2017-12-13T04:32:18.946Z,93.51
2017-12-13T04:33:18.960Z,93.23
2017-12-13T04:34:18.975Z,93.51
2017-12-13T04:35:18.990Z,93.51
2017-12-13T04:36:19.004Z,93.51
2017-12-13T04:37:19.019Z,93.23
2017-12-13T04:38:19.034Z,93.04
2017-12-13T04:39:19.049Z,92.94
2017-12-13T04:40:19.128Z,92.94
2017-12-13T04:41:19.078Z,93.04
2017-12-13T04:42:19.094Z,93.61
2017-12-13T04:43:19.109Z,93.89
2017-12-13T04:44:19.124Z,93.89
2017-12-13T04:45:19.139Z,93.23
2017-12-13T04:46:19.151Z,92.47
2017-12-13T04:47:19.167Z,92.66
2017-12-13T04:48:19.204Z,92.38
2017-12-13T04:49:19.198Z,92.00
2017-12-13T04:50:19.211Z,92.00
2017-12-13T04:51:19.227Z,91.81
2017-12-13T04:52:19.244Z,92.76
2017-12-13T04:53:19.257Z,92.76
2017-12-13T04:54:19.274Z,92.38
2017-12-13T04:55:19.293Z,91.81
2017-12-13T04:56:19.301Z,91.43
2017-12-13T04:57:19.316Z,91.05
2017-12-13T04:58:19.330Z,91.15
2017-12-13T04:59:19.347Z,91.53
2017-12-13T05:00:19.363Z,91.62
2017-12-13T05:01:19.377Z,91.62
2017-12-13T05:02:19.391Z,91.43
2017-12-13T05:03:19.407Z,91.24
2017-12-13T05:04:19.420Z,90.67
2017-12-13T05:05:19.436Z,91.43
2017-12-13T05:06:19.451Z,91.24
2017-12-13T05:07:19.466Z,91.15
2017-12-13T05:08:19.480Z,91.05
2017-12-13T05:09:19.495Z,91.43
2017-12-13T05:10:19.510Z,91.15
2017-12-13T05:11:19.524Z,91.53
2017-12-13T05:12:19.539Z,91.24
2017-12-13T05:13:19.554Z,91.15
2017-12-13T05:14:19.569Z,91.62
2017-12-13T05:15:19.584Z,91.62
2017-12-13T05:16:19.598Z,91.81
2017-12-13T05:17:19.615Z,92.19
2017-12-13T05:18:19.627Z,92.19
2017-12-13T05:19:19.645Z,91.62
2017-12-13T05:20:19.656Z,91.53
2017-12-13T05:21:19.672Z,91.15
2017-12-13T05:22:19.686Z,91.24
2017-12-13T05:23:19.704Z,91.62
2017-12-13T05:24:19.718Z,91.81
2017-12-13T05:25:19.743Z,92.19
2017-12-13T05:26:19.745Z,93.04
2017-12-13T05:27:19.760Z,93.04
2017-12-13T05:28:19.774Z,92.85
2017-12-13T05:29:19.790Z,93.23
2017-12-13T05:30:19.805Z,92.66
2017-12-13T05:31:19.820Z,92.76
2017-12-13T05:32:19.834Z,92.76
2017-12-13T05:33:19.848Z,92.66
2017-12-13T05:34:19.862Z,92.38
2017-12-13T05:35:19.877Z,91.91
2017-12-13T05:36:19.893Z,91.81
2017-12-13T05:37:19.907Z,92.10
2017-12-13T05:38:19.920Z,91.91
2017-12-13T05:39:19.935Z,91.91
2017-12-13T05:40:19.951Z,92.10
2017-12-13T05:41:19.965Z,91.91
2017-12-13T05:42:19.980Z,91.91
2017-12-13T05:43:19.993Z,91.53
2017-12-13T05:44:20.260Z,91.53
2017-12-13T05:45:20.024Z,91.81
2017-12-13T05:46:20.037Z,91.81
2017-12-13T05:47:20.053Z,91.62
2017-12-13T05:48:20.067Z,91.24
2017-12-13T05:49:20.081Z,91.72
2017-12-13T05:50:20.095Z,91.81
2017-12-13T05:51:20.111Z,91.91
2017-12-13T05:52:20.125Z,92.57
2017-12-13T05:53:20.291Z,92.76
2017-12-13T05:54:20.154Z,92.94
2017-12-13T05:55:20.170Z,93.04
2017-12-13T05:56:20.234Z,92.38
2017-12-13T05:57:20.201Z,92.57
2017-12-13T05:58:20.217Z,92.29
2017-12-13T05:59:20.227Z,92.66
2017-12-13T06:00:20.244Z,92.47
2017-12-13T06:01:20.258Z,92.47
2017-12-13T06:02:20.271Z,92.66
2017-12-13T06:03:20.287Z,92.38
2017-12-13T06:04:20.302Z,92.76
2017-12-13T06:05:20.315Z,92.85
2017-12-13T06:06:20.329Z,92.00
2017-12-13T06:07:20.346Z,91.81
2017-12-13T06:08:20.362Z,91.81
2017-12-13T06:09:20.376Z,91.62
2017-12-13T06:10:20.387Z,92.19
2017-12-13T06:11:20.403Z,91.91
2017-12-13T06:12:20.418Z,92.66
2017-12-13T06:13:20.433Z,92.00
2017-12-13T06:14:20.447Z,92.00
2017-12-13T06:15:20.463Z,91.72
2017-12-13T06:16:20.475Z,92.29
2017-12-13T06:17:20.491Z,92.66
2017-12-13T06:18:20.505Z,93.32
2017-12-13T06:19:20.520Z,93.23
2017-12-13T06:20:20.534Z,93.23
2017-12-13T06:21:20.549Z,93.70
2017-12-13T06:22:20.563Z,93.42
2017-12-13T06:23:20.577Z,93.51
2017-12-13T06:24:20.593Z,93.61
2017-12-13T06:25:20.608Z,93.13
2017-12-13T06:26:20.621Z,92.94
2017-12-13T06:27:20.638Z,92.85
2017-12-13T06:28:20.651Z,92.76
2017-12-13T06:29:20.667Z,93.13
2017-12-13T06:30:20.680Z,93.42
2017-12-13T06:31:20.695Z,93.23
2017-12-13T06:32:20.710Z,93.61
2017-12-13T06:33:20.726Z,93.42
2017-12-13T06:34:20.738Z,93.42
2017-12-13T06:35:20.755Z,93.13
2017-12-13T06:36:20.769Z,93.08
2017-12-13T06:37:20.784Z,92.61
2017-12-13T06:38:20.798Z,92.52
2017-12-13T06:39:20.816Z,92.52
2017-12-13T06:40:20.827Z,92.90
2017-12-13T06:41:20.843Z,92.90
2017-12-13T06:42:20.858Z,92.90
2017-12-13T06:43:20.872Z,92.99
2017-12-13T06:44:20.892Z,93.37
2017-12-13T06:45:20.903Z,93.08
2017-12-13T06:46:20.917Z,93.56
2017-12-13T06:47:20.931Z,92.61
2017-12-13T06:48:20.946Z,92.80
2017-12-13T06:49:20.962Z,93.27
2017-12-13T06:50:20.979Z,92.80
2017-12-13T06:51:20.998Z,92.99
2017-12-13T06:52:21.006Z,92.99
2017-12-13T06:53:21.023Z,93.18
2017-12-13T06:54:21.034Z,92.80
2017-12-13T06:55:21.050Z,92.80
2017-12-13T06:56:21.065Z,92.33
2017-12-13T06:57:21.081Z,92.90
2017-12-13T06:58:21.095Z,92.90
2017-12-13T06:59:21.111Z,93.08
2017-12-13T07:00:21.124Z,93.08
2017-12-13T07:01:21.141Z,92.61
2017-12-13T07:02:21.155Z,92.99
2017-12-13T07:03:21.168Z,92.80
2017-12-13T07:04:21.185Z,92.80
2017-12-13T07:05:21.199Z,92.61
2017-12-13T07:06:21.215Z,92.99
2017-12-13T07:07:21.230Z,92.80
2017-12-13T07:08:21.245Z,92.61
2017-12-13T07:09:21.259Z,93.27
2017-12-13T07:10:21.274Z,93.37
2017-12-13T07:11:21.288Z,93.37
2017-12-13T07:12:21.304Z,93.18
2017-12-13T07:13:21.321Z,93.08
2017-12-13T07:14:21.334Z,93.18
2017-12-13T07:15:21.349Z,92.90
2017-12-13T07:16:21.364Z,92.43
2017-12-13T07:17:21.385Z,92.71
2017-12-13T07:18:21.395Z,92.90
2017-12-13T07:19:21.410Z,92.71
2017-12-13T07:20:21.425Z,92.90
2017-12-13T07:21:21.440Z,92.90
2017-12-13T07:22:21.454Z,93.13
2017-12-13T07:23:21.470Z,92.14
2017-12-13T07:24:21.486Z,92.19
2017-12-13T07:25:21.502Z,92.09
2017-12-13T07:26:21.515Z,92.09
2017-12-13T07:27:21.531Z,92.19
2017-12-13T07:28:21.546Z,92.28
2017-12-13T07:29:21.562Z,92.19
2017-12-13T07:30:21.577Z,92.09
2017-12-13T07:31:21.593Z,92.09
2017-12-13T07:32:21.607Z,92.28
2017-12-13T07:33:21.623Z,92.38
2017-12-13T07:34:21.638Z,92.19
2017-12-13T07:35:21.653Z,92.19
2017-12-13T07:36:21.668Z,92.76
2017-12-13T07:37:21.687Z,92.38
2017-12-13T07:38:21.700Z,92.09
2017-12-13T07:39:21.717Z,91.90
2017-12-13T07:40:21.931Z,91.90
2017-12-13T07:41:21.745Z,91.90
2017-12-13T07:42:21.762Z,92.09
2017-12-13T07:43:21.777Z,92.09
2017-12-13T07:44:21.793Z,91.24
2017-12-13T07:45:21.807Z,91.62
2017-12-13T07:46:21.822Z,92.00
2017-12-13T07:47:21.839Z,92.28
2017-12-13T07:48:21.855Z,91.62
2017-12-13T07:49:21.870Z,91.81
2017-12-13T07:50:21.884Z,91.62
2017-12-13T07:51:21.901Z,91.33
2017-12-13T07:52:21.915Z,91.24
2017-12-13T07:53:21.932Z,91.81
2017-12-13T07:54:21.947Z,91.05
2017-12-13T07:55:21.963Z,91.14
2017-12-13T07:56:21.979Z,90.86
2017-12-13T07:57:22.000Z,91.43
2017-12-13T07:58:22.012Z,91.43
2017-12-13T07:59:22.024Z,91.43
2017-12-13T08:00:22.042Z,90.86
2017-12-13T08:01:22.056Z,90.67
2017-12-13T08:02:22.071Z,90.29
2017-12-13T08:03:22.087Z,90.39
2017-12-13T08:04:22.103Z,90.48
2017-12-13T08:05:22.119Z,90.39
2017-12-13T08:06:22.133Z,90.86
2017-12-13T08:07:22.148Z,91.05
2017-12-13T08:08:22.164Z,91.14
2017-12-13T08:09:22.180Z,90.77
2017-12-13T08:10:22.196Z,90.01
2017-12-13T08:11:22.210Z,89.91
2017-12-13T08:12:22.228Z,90.01
2017-12-13T08:13:22.242Z,90.77
2017-12-13T08:14:22.266Z,90.20
2017-12-13T08:15:22.272Z,90.48
2017-12-13T08:16:22.290Z,90.48
2017-12-13T08:17:22.333Z,90.29
2017-12-13T08:18:22.320Z,90.10
2017-12-13T08:19:22.414Z,90.01
2017-12-13T08:20:22.351Z,89.63
2017-12-13T08:21:22.372Z,90.34
2017-12-13T08:22:22.382Z,90.05
2017-12-13T08:23:22.398Z,89.67
2017-12-13T08:24:22.422Z,89.86
2017-12-13T08:25:22.431Z,89.67
2017-12-13T08:26:22.446Z,89.86
2017-12-13T08:27:22.463Z,90.05
2017-12-13T08:28:22.479Z,89.11
2017-12-13T08:29:22.495Z,89.39
2017-12-13T08:30:22.509Z,89.01
2017-12-13T08:31:22.526Z,89.39
2017-12-13T08:32:22.542Z,89.29
2017-12-13T08:33:22.557Z,89.48
2017-12-13T08:34:22.573Z,89.39
2017-12-13T08:35:22.590Z,89.29
2017-12-13T08:36:22.605Z,89.29
2017-12-13T08:37:22.622Z,89.39
2017-12-13T08:38:22.637Z,89.67
2017-12-13T08:39:22.653Z,89.48
2017-12-13T08:40:22.669Z,89.01
2017-12-13T08:41:22.686Z,89.67
2017-12-13T08:42:22.700Z,89.39
2017-12-13T08:43:22.716Z,89.29
2017-12-13T08:44:22.732Z,89.58
2017-12-13T08:45:22.751Z,89.29
2017-12-13T08:46:22.764Z,89.48
2017-12-13T08:47:22.780Z,89.29
2017-12-13T08:48:22.797Z,89.39
2017-12-13T08:49:22.814Z,88.82
2017-12-13T08:50:22.829Z,88.35
2017-12-13T08:51:22.845Z,88.82
2017-12-13T08:52:22.861Z,88.44
2017-12-13T08:53:22.878Z,88.44
2017-12-13T08:54:22.894Z,88.25
2017-12-13T08:55:22.910Z,88.16
2017-12-13T08:56:22.929Z,88.35
2017-12-13T08:57:22.942Z,88.16
2017-12-13T08:58:22.963Z,87.68
2017-12-13T08:59:22.974Z,87.59
2017-12-13T09:00:22.989Z,88.16
2017-12-13T09:01:23.005Z,87.68
2017-12-13T09:02:23.021Z,87.40
2017-12-13T09:03:23.041Z,88.06
2017-12-13T09:04:23.054Z,87.77
2017-12-13T09:05:23.070Z,87.40
2017-12-13T09:06:23.086Z,87.30
2017-12-13T09:07:23.103Z,88.06
2017-12-13T09:08:23.118Z,87.97
2017-12-13T09:09:23.137Z,87.68
2017-12-13T09:10:23.151Z,87.77
2017-12-13T09:11:23.165Z,87.49
2017-12-13T09:12:23.183Z,87.30
2017-12-13T09:13:23.201Z,87.77
2017-12-13T09:14:23.266Z,87.49
2017-12-13T09:15:23.230Z,87.68
2017-12-13T09:16:23.249Z,87.97
2017-12-13T09:17:23.264Z,87.49
2017-12-13T09:18:23.278Z,87.87
2017-12-13T09:19:23.301Z,88.35
2017-12-13T09:20:23.312Z,88.63
2017-12-13T09:21:23.327Z,88.73
2017-12-13T09:22:23.343Z,88.73
2017-12-13T09:23:23.360Z,88.54
2017-12-13T09:24:23.378Z,89.20
2017-12-13T09:25:23.392Z,88.82
2017-12-13T09:26:23.408Z,89.01
2017-12-13T09:27:23.424Z,89.11
2017-12-13T09:28:23.441Z,89.39
2017-12-13T09:29:23.457Z,89.77
2017-12-13T09:30:23.475Z,89.96
2017-12-13T09:31:23.489Z,90.15
2017-12-13T09:32:23.522Z,90.62
2017-12-13T09:33:23.521Z,90.91
2017-12-13T09:34:23.536Z,90.62
2017-12-13T09:35:23.553Z,91.09
2017-12-13T09:36:23.571Z,90.72
2017-12-13T09:37:23.586Z,90.81
2017-12-13T09:38:23.600Z,90.91
2017-12-13T09:39:23.618Z,90.91
2017-12-13T09:40:23.672Z,91.09
2017-12-13T09:41:23.650Z,91.38
2017-12-13T09:42:23.664Z,91.76
2017-12-13T09:43:23.681Z,91.95
2017-12-13T09:44:23.697Z,92.14
2017-12-13T09:45:23.715Z,92.04
2017-12-13T09:46:23.729Z,91.95
2017-12-13T09:47:23.745Z,92.23
2017-12-13T09:48:23.762Z,92.14
2017-12-13T09:49:23.777Z,92.33
2017-12-13T09:50:23.836Z,92.23
2017-12-13T09:51:23.811Z,92.52
2017-12-13T09:52:23.826Z,92.71
2017-12-13T09:53:23.842Z,93.56
2017-12-13T09:54:23.858Z,93.46
2017-12-13T09:55:23.877Z,93.27
2017-12-13T09:56:23.890Z,93.27
2017-12-13T09:57:23.907Z,93.08
2017-12-13T09:58:23.927Z,92.99
2017-12-13T09:59:23.938Z,92.90
2017-12-13T10:00:23.956Z,93.37
2017-12-13T10:01:23.971Z,93.08
2017-12-13T10:02:23.988Z,92.99
2017-12-13T10:03:24.003Z,93.37
2017-12-13T10:04:24.021Z,93.08
2017-12-13T10:05:24.037Z,93.37
2017-12-13T10:06:24.051Z,93.08
2017-12-13T10:07:24.067Z,93.37
2017-12-13T10:08:24.085Z,93.08
2017-12-13T10:09:24.100Z,93.08
2017-12-13T10:10:24.117Z,93.27
2017-12-13T10:11:24.132Z,93.27
2017-12-13T10:12:24.150Z,93.18
2017-12-13T10:13:24.167Z,93.18
2017-12-13T10:14:24.183Z,92.80
2017-12-13T10:15:24.199Z,93.46
2017-12-13T10:16:24.215Z,93.37
2017-12-13T10:17:24.230Z,93.08
2017-12-13T10:18:24.246Z,92.71
2017-12-13T10:19:24.363Z,93.46
2017-12-13T10:20:24.280Z,93.37
2017-12-13T10:21:24.296Z,93.75
2017-12-13T10:22:24.312Z,94.13
2017-12-13T10:23:24.329Z,94.32
2017-12-13T10:24:24.344Z,94.04
2017-12-13T10:25:24.362Z,93.56
2017-12-13T10:26:24.378Z,93.75
2017-12-13T10:27:24.396Z,93.37
2017-12-13T10:28:24.409Z,94.13
2017-12-13T10:29:24.427Z,94.79
2017-12-13T10:30:24.442Z,94.98
2017-12-13T10:31:24.458Z,94.23
2017-12-13T10:32:24.475Z,94.23
2017-12-13T10:33:24.492Z,94.51
2017-12-13T10:34:24.507Z,94.93
2017-12-13T10:35:24.529Z,94.56
2017-12-13T10:36:24.540Z,94.04
2017-12-13T10:37:24.564Z,94.46
2017-12-13T10:38:24.572Z,94.74
2017-12-13T10:39:24.589Z,94.46
2017-12-13T10:40:24.606Z,94.93
2017-12-13T10:41:24.622Z,94.46
2017-12-13T10:42:24.637Z,94.84
2017-12-13T10:43:24.654Z,95.41
2017-12-13T10:44:24.671Z,95.41
2017-12-13T10:45:24.687Z,95.22
2017-12-13T10:46:24.703Z,94.79
2017-12-13T10:47:24.719Z,95.36
2017-12-13T10:48:24.735Z,95.60
2017-12-13T10:49:24.753Z,95.69
2017-12-13T10:50:24.768Z,95.84
2017-12-13T10:51:24.783Z,95.69
2017-12-13T10:52:24.800Z,96.50
2017-12-13T10:53:24.818Z,96.12
2017-12-13T10:54:24.834Z,96.69
2017-12-13T10:55:24.849Z,96.59
2017-12-13T10:56:24.866Z,97.64
2017-12-13T10:57:24.883Z,97.73
2017-12-13T10:58:24.898Z,97.83
2017-12-13T10:59:24.915Z,97.16
2017-12-13T11:00:24.950Z,97.16
2017-12-13T11:01:24.948Z,97.26
2017-12-13T11:02:24.962Z,97.54
2017-12-13T11:03:24.980Z,97.73
2017-12-13T11:04:24.995Z,98.49
2017-12-13T11:05:25.012Z,98.21
2017-12-13T11:06:25.029Z,98.68
2017-12-13T11:07:25.046Z,98.49
2017-12-13T11:08:25.061Z,98.68
2017-12-13T11:09:25.077Z,98.21
2017-12-13T11:10:25.092Z,98.21
2017-12-13T11:11:25.110Z,98.21
2017-12-13T11:12:25.130Z,98.58
2017-12-13T11:13:25.143Z,98.30
2017-12-13T11:14:25.158Z,98.21
2017-12-13T11:15:25.192Z,98.21
2017-12-13T11:16:25.190Z,98.30
2017-12-13T11:17:25.208Z,98.39
2017-12-13T11:18:25.223Z,98.49
2017-12-13T11:19:25.238Z,98.58
2017-12-13T11:20:25.257Z,98.21
2017-12-13T11:21:25.272Z,98.68
2017-12-13T11:22:25.291Z,98.87
2017-12-13T11:23:25.303Z,98.77
2017-12-13T11:24:25.321Z,98.58
2017-12-13T11:25:25.336Z,99.25
2017-12-13T11:26:25.352Z,99.53
2017-12-13T11:27:25.370Z,98.49
2017-12-13T11:28:25.387Z,98.68
2017-12-13T11:29:25.401Z,99.44
2017-12-13T11:30:25.417Z,99.63
2017-12-13T11:31:25.433Z,99.25
2017-12-13T11:32:25.450Z,99.82
2017-12-13T11:33:25.466Z,99.15
2017-12-13T11:34:25.488Z,99.34
2017-12-13T11:35:25.505Z,99.34
2017-12-13T11:36:25.514Z,99.72
2017-12-13T11:37:25.532Z,99.99
2017-12-13T11:38:25.547Z,99.99
2017-12-13T11:39:25.562Z,99.99
2017-12-13T11:40:25.580Z,99.99
2017-12-13T11:41:25.595Z,99.99
2017-12-13T11:42:25.612Z,99.99
2017-12-13T11:43:25.628Z,99.99
2017-12-13T11:44:25.643Z,99.99
2017-12-13T11:45:25.661Z,99.99
2017-12-13T11:46:25.676Z,99.99
2017-12-13T11:47:25.693Z,99.99
2017-12-13T11:48:25.709Z,99.82
2017-12-13T11:49:25.727Z,99.63
2017-12-13T11:51:25.757Z,99.99
2017-12-13T11:52:25.774Z,99.99
2017-12-13T11:53:25.790Z,99.99
2017-12-13T11:54:25.805Z,99.99
2017-12-13T11:55:25.822Z,99.99
2017-12-13T11:56:25.837Z,99.99
2017-12-13T11:57:26.215Z,99.99
2017-12-13T11:58:25.869Z,99.99
2017-12-13T11:59:25.886Z,99.99
2017-12-13T12:00:25.903Z,99.99
2017-12-13T12:01:25.919Z,99.99
2017-12-13T12:02:25.935Z,99.99
2017-12-13T12:03:25.950Z,99.99
2017-12-13T12:04:25.965Z,99.99
2017-12-13T12:05:25.988Z,99.99
2017-12-13T12:06:25.998Z,99.99
2017-12-13T12:07:26.014Z,99.99
2017-12-13T12:08:26.031Z,99.99
2017-12-13T12:09:26.047Z,99.99
2017-12-13T12:10:26.062Z,99.99
2017-12-13T12:11:26.079Z,99.99
2017-12-13T12:12:26.095Z,99.99
2017-12-13T12:13:26.110Z,99.99
2017-12-13T12:14:26.137Z,99.99
2017-12-13T12:15:26.142Z,99.99
2017-12-13T12:16:26.159Z,99.99
2017-12-13T12:17:26.175Z,99.99
2017-12-13T12:18:26.189Z,99.99
2017-12-13T12:19:26.259Z,99.99
2017-12-13T12:20:26.224Z,99.99
2017-12-13T12:21:26.238Z,99.99
2017-12-13T12:22:26.253Z,99.99
2017-12-13T12:23:26.270Z,99.99
2017-12-13T12:24:26.288Z,99.99
2017-12-13T12:25:26.303Z,99.99
2017-12-13T12:26:26.319Z,99.99
2017-12-13T12:27:26.334Z,99.99
2017-12-13T12:28:26.350Z,99.99
2017-12-13T12:29:26.577Z,99.99
2017-12-13T12:30:26.383Z,99.99
2017-12-13T12:31:26.398Z,99.99
2017-12-13T12:32:26.415Z,99.99
2017-12-13T12:33:26.430Z,99.99
2017-12-13T12:34:26.445Z,99.99
2017-12-13T12:35:26.462Z,99.99
2017-12-13T12:36:26.479Z,99.99
2017-12-13T12:37:26.494Z,99.99
2017-12-13T12:38:26.570Z,99.99
2017-12-13T12:39:26.524Z,99.99
2017-12-13T12:40:26.542Z,99.99
2017-12-13T12:41:26.560Z,99.99
2017-12-13T12:42:26.572Z,99.99
2017-12-13T12:43:26.589Z,99.99
2017-12-13T12:44:26.605Z,99.99
2017-12-13T12:45:26.622Z,99.99
2017-12-13T12:46:26.639Z,99.99
2017-12-13T12:47:26.653Z,99.99
2017-12-13T12:48:26.670Z,99.99
2017-12-13T12:49:26.687Z,99.99
2017-12-13T12:50:26.701Z,99.99
2017-12-13T12:51:26.717Z,99.99
2017-12-13T12:52:26.732Z,99.99
2017-12-13T12:53:26.749Z,99.99